sensor_id;sensor_type;location;lat;lon;timestamp;temperature;humidity
43607;DHT22;29197;44.788;10.366;2023-12-07T00:00:35;5.70;99.90
43607;DHT22;29197;44.788;10.366;2023-12-07T00:03:24;5.70;99.90
43607;DHT22;29197;44.788;10.366;2023-12-07T00:06:13;5.70;99.90
43607;DHT22;29197;44.788;10.366;2023-12-07T00:09:01;5.80;99.90
43607;DHT22;29197;44.788;10.366;2023-12-07T00:11:50;5.80;99.90
43607;DHT22;29197;44.788;10.366;2023-12-07T00:14:39;5.80;99.90
43607;DHT22;29197;44.788;10.366;2023-12-07T00:17:29;5.80;99.90
43607;DHT22;29197;44.788;10.366;2023-12-07T00:20:17;5.70;99.90
43607;DHT22;29197;44.788;10.366;2023-12-07T00:23:06;5.70;99.90
43607;DHT22;29197;44.788;10.366;2023-12-07T00:25:55;5.80;99.90
43607;DHT22;29197;44.788;10.366;2023-12-07T00:28:43;5.70;99.90
43607;DHT22;29197;44.788;10.366;2023-12-07T00:31:32;5.60;99.90
43607;DHT22;29197;44.788;10.366;2023-12-07T00:34:22;5.50;99.90
43607;DHT22;29197;44.788;10.366;2023-12-07T00:37:11;5.50;99.90
43607;DHT22;29197;44.788;10.366;2023-12-07T00:40:01;5.50;99.90
43607;DHT22;29197;44.788;10.366;2023-12-07T00:42:51;5.30;99.90
43607;DHT22;29197;44.788;10.366;2023-12-07T00:45:40;5.20;99.90
43607;DHT22;29197;44.788;10.366;2023-12-07T00:48:29;5.00;99.90
43607;DHT22;29197;44.788;10.366;2023-12-07T00:51:19;4.90;99.90
43607;DHT22;29197;44.788;10.366;2023-12-07T00:54:07;5.10;99.90
43607;DHT22;29197;44.788;10.366;2023-12-07T00:56:56;5.20;99.90
43607;DHT22;29197;44.788;10.366;2023-12-07T00:59:45;5.40;99.90
43607;DHT22;29197;44.788;10.366;2023-12-07T01:02:33;5.50;99.90
43607;DHT22;29197;44.788;10.366;2023-12-07T01:05:22;5.50;99.90
43607;DHT22;29197;44.788;10.366;2023-12-07T01:08:12;5.50;99.90
43607;DHT22;29197;44.788;10.366;2023-12-07T01:11:01;5.40;99.90
43607;DHT22;29197;44.788;10.366;2023-12-07T01:13:50;5.40;99.90
43607;DHT22;29197;44.788;10.366;2023-12-07T01:16:38;5.40;99.90
43607;DHT22;29197;44.788;10.366;2023-12-07T01:19:27;5.40;99.90
43607;DHT22;29197;44.788;10.366;2023-12-07T01:22:16;5.40;99.90
43607;DHT22;29197;44.788;10.366;2023-12-07T01:25:06;5.20;99.90
43607;DHT22;29197;44.788;10.366;2023-12-07T01:27:56;5.20;99.90
43607;DHT22;29197;44.788;10.366;2023-12-07T01:30:44;5.30;99.90
43607;DHT22;29197;44.788;10.366;2023-12-07T01:33:33;5.30;99.90
43607;DHT22;29197;44.788;10.366;2023-12-07T01:36:22;5.40;99.90
43607;DHT22;29197;44.788;10.366;2023-12-07T01:39:10;5.50;99.90
43607;DHT22;29197;44.788;10.366;2023-12-07T01:42:01;5.60;99.90
43607;DHT22;29197;44.788;10.366;2023-12-07T01:44:50;5.60;99.90
43607;DHT22;29197;44.788;10.366;2023-12-07T01:47:39;5.60;99.90
43607;DHT22;29197;44.788;10.366;2023-12-07T01:50:28;5.60;99.90
43607;DHT22;29197;44.788;10.366;2023-12-07T01:53:18;5.60;99.90
43607;DHT22;29197;44.788;10.366;2023-12-07T01:56:08;5.60;99.90
43607;DHT22;29197;44.788;10.366;2023-12-07T01:58:59;5.60;99.90
43607;DHT22;29197;44.788;10.366;2023-12-07T02:01:47;5.60;99.90
43607;DHT22;29197;44.788;10.366;2023-12-07T02:04:36;5.60;99.90
43607;DHT22;29197;44.788;10.366;2023-12-07T02:07:26;5.50;99.90
43607;DHT22;29197;44.788;10.366;2023-12-07T02:10:15;5.50;99.90
43607;DHT22;29197;44.788;10.366;2023-12-07T02:13:06;5.40;99.90
43607;DHT22;29197;44.788;10.366;2023-12-07T02:15:58;5.40;99.90
43607;DHT22;29197;44.788;10.366;2023-12-07T02:18:51;5.40;99.90
43607;DHT22;29197;44.788;10.366;2023-12-07T02:21:45;5.30;99.90
43607;DHT22;29197;44.788;10.366;2023-12-07T02:24:37;5.30;99.90
43607;DHT22;29197;44.788;10.366;2023-12-07T02:27:38;5.30;99.90
43607;DHT22;29197;44.788;10.366;2023-12-07T02:30:27;5.20;99.90
43607;DHT22;29197;44.788;10.366;2023-12-07T02:33:22;5.20;99.90
43607;DHT22;29197;44.788;10.366;2023-12-07T02:36:39;5.20;99.90
43607;DHT22;29197;44.788;10.366;2023-12-07T02:39:29;4.90;99.90
43607;DHT22;29197;44.788;10.366;2023-12-07T02:42:18;4.70;99.90
43607;DHT22;29197;44.788;10.366;2023-12-07T02:45:10;4.70;99.90
43607;DHT22;29197;44.788;10.366;2023-12-07T02:47:59;4.50;99.90
43607;DHT22;29197;44.788;10.366;2023-12-07T02:50:48;4.50;99.90
43607;DHT22;29197;44.788;10.366;2023-12-07T02:53:37;4.50;99.90
43607;DHT22;29197;44.788;10.366;2023-12-07T02:56:25;4.30;99.90
43607;DHT22;29197;44.788;10.366;2023-12-07T02:59:14;4.40;99.90
43607;DHT22;29197;44.788;10.366;2023-12-07T03:02:04;4.40;99.90
43607;DHT22;29197;44.788;10.366;2023-12-07T03:04:53;4.50;99.90
43607;DHT22;29197;44.788;10.366;2023-12-07T03:07:41;4.60;99.90
43607;DHT22;29197;44.788;10.366;2023-12-07T03:10:30;4.70;99.90
43607;DHT22;29197;44.788;10.366;2023-12-07T03:13:19;4.80;99.90
43607;DHT22;29197;44.788;10.366;2023-12-07T03:19:00;4.90;99.90
43607;DHT22;29197;44.788;10.366;2023-12-07T03:21:49;4.90;99.90
43607;DHT22;29197;44.788;10.366;2023-12-07T03:24:38;5.00;99.90
43607;DHT22;29197;44.788;10.366;2023-12-07T03:27:26;4.90;99.90
43607;DHT22;29197;44.788;10.366;2023-12-07T03:30:16;4.90;99.90
43607;DHT22;29197;44.788;10.366;2023-12-07T03:33:05;4.90;99.90
43607;DHT22;29197;44.788;10.366;2023-12-07T03:35:55;4.80;99.90
43607;DHT22;29197;44.788;10.366;2023-12-07T03:38:44;4.80;99.90
43607;DHT22;29197;44.788;10.366;2023-12-07T03:41:32;4.90;99.90
43607;DHT22;29197;44.788;10.366;2023-12-07T03:44:21;4.90;99.90
43607;DHT22;29197;44.788;10.366;2023-12-07T03:47:10;4.70;99.90
43607;DHT22;29197;44.788;10.366;2023-12-07T03:49:58;4.30;99.90
43607;DHT22;29197;44.788;10.366;2023-12-07T03:52:48;4.30;99.90
43607;DHT22;29197;44.788;10.366;2023-12-07T03:55:37;3.90;99.90
43607;DHT22;29197;44.788;10.366;2023-12-07T03:58:26;4.00;99.90
43607;DHT22;29197;44.788;10.366;2023-12-07T04:01:14;4.00;99.90
43607;DHT22;29197;44.788;10.366;2023-12-07T04:04:03;4.00;99.90
43607;DHT22;29197;44.788;10.366;2023-12-07T04:06:52;4.20;99.90
43607;DHT22;29197;44.788;10.366;2023-12-07T04:09:42;4.20;99.90
43607;DHT22;29197;44.788;10.366;2023-12-07T04:12:32;4.10;99.90
43607;DHT22;29197;44.788;10.366;2023-12-07T04:15:21;4.00;99.90
43607;DHT22;29197;44.788;10.366;2023-12-07T04:18:10;4.10;99.90
43607;DHT22;29197;44.788;10.366;2023-12-07T04:20:59;4.30;99.90
43607;DHT22;29197;44.788;10.366;2023-12-07T04:23:47;4.30;99.90
43607;DHT22;29197;44.788;10.366;2023-12-07T04:26:37;4.10;99.90
43607;DHT22;29197;44.788;10.366;2023-12-07T04:29:26;4.00;99.90
43607;DHT22;29197;44.788;10.366;2023-12-07T04:35:04;3.90;99.90
43607;DHT22;29197;44.788;10.366;2023-12-07T04:37:54;3.90;99.90
43607;DHT22;29197;44.788;10.366;2023-12-07T04:43:33;3.40;99.90
43607;DHT22;29197;44.788;10.366;2023-12-07T04:46:21;3.30;99.90
43607;DHT22;29197;44.788;10.366;2023-12-07T04:51:59;3.70;99.90
43607;DHT22;29197;44.788;10.366;2023-12-07T04:54:48;3.80;99.90
43607;DHT22;29197;44.788;10.366;2023-12-07T04:57:37;3.90;99.90
43607;DHT22;29197;44.788;10.366;2023-12-07T05:00:27;3.90;99.90
43607;DHT22;29197;44.788;10.366;2023-12-07T05:03:16;3.90;99.90
43607;DHT22;29197;44.788;10.366;2023-12-07T05:06:05;3.90;99.90
43607;DHT22;29197;44.788;10.366;2023-12-07T05:08:54;3.90;99.90
43607;DHT22;29197;44.788;10.366;2023-12-07T05:11:43;4.00;99.90
43607;DHT22;29197;44.788;10.366;2023-12-07T05:14:33;3.90;99.90
43607;DHT22;29197;44.788;10.366;2023-12-07T05:17:23;3.80;99.90
43607;DHT22;29197;44.788;10.366;2023-12-07T05:20:12;3.80;99.90
43607;DHT22;29197;44.788;10.366;2023-12-07T05:23:01;3.80;99.90
43607;DHT22;29197;44.788;10.366;2023-12-07T05:25:50;3.80;99.90
43607;DHT22;29197;44.788;10.366;2023-12-07T05:28:38;3.80;99.90
43607;DHT22;29197;44.788;10.366;2023-12-07T05:31:27;3.90;99.90
43607;DHT22;29197;44.788;10.366;2023-12-07T05:34:17;4.00;99.90
43607;DHT22;29197;44.788;10.366;2023-12-07T05:37:06;4.00;99.90
43607;DHT22;29197;44.788;10.366;2023-12-07T05:39:55;4.20;99.90
43607;DHT22;29197;44.788;10.366;2023-12-07T05:42:45;4.10;99.90
43607;DHT22;29197;44.788;10.366;2023-12-07T05:45:34;3.90;99.90
43607;DHT22;29197;44.788;10.366;2023-12-07T05:48:23;3.90;99.90
43607;DHT22;29197;44.788;10.366;2023-12-07T05:51:13;3.80;99.90
43607;DHT22;29197;44.788;10.366;2023-12-07T05:54:02;3.80;99.90
43607;DHT22;29197;44.788;10.366;2023-12-07T05:56:51;3.80;99.90
43607;DHT22;29197;44.788;10.366;2023-12-07T05:59:40;3.80;99.90
43607;DHT22;29197;44.788;10.366;2023-12-07T06:02:30;3.90;99.90
43607;DHT22;29197;44.788;10.366;2023-12-07T06:05:18;3.90;99.90
43607;DHT22;29197;44.788;10.366;2023-12-07T06:08:09;3.80;99.90
43607;DHT22;29197;44.788;10.366;2023-12-07T06:10:58;3.80;99.90
43607;DHT22;29197;44.788;10.366;2023-12-07T06:13:47;3.90;99.90
43607;DHT22;29197;44.788;10.366;2023-12-07T06:16:36;3.90;99.90
43607;DHT22;29197;44.788;10.366;2023-12-07T06:19:24;4.00;99.90
43607;DHT22;29197;44.788;10.366;2023-12-07T06:22:13;3.60;99.90
43607;DHT22;29197;44.788;10.366;2023-12-07T06:25:04;3.60;99.90
43607;DHT22;29197;44.788;10.366;2023-12-07T06:27:53;3.70;99.90
43607;DHT22;29197;44.788;10.366;2023-12-07T06:30:43;3.80;99.90
43607;DHT22;29197;44.788;10.366;2023-12-07T06:33:32;3.80;99.90
43607;DHT22;29197;44.788;10.366;2023-12-07T06:36:23;3.70;99.90
43607;DHT22;29197;44.788;10.366;2023-12-07T06:39:13;3.70;99.90
43607;DHT22;29197;44.788;10.366;2023-12-07T06:42:03;3.70;99.90
43607;DHT22;29197;44.788;10.366;2023-12-07T06:44:52;3.90;99.90
43607;DHT22;29197;44.788;10.366;2023-12-07T06:47:41;4.00;99.90
43607;DHT22;29197;44.788;10.366;2023-12-07T06:53:19;4.00;99.90
43607;DHT22;29197;44.788;10.366;2023-12-07T06:56:09;4.10;99.90
43607;DHT22;29197;44.788;10.366;2023-12-07T06:58:59;4.20;99.90
43607;DHT22;29197;44.788;10.366;2023-12-07T07:01:47;4.20;99.90
43607;DHT22;29197;44.788;10.366;2023-12-07T07:04:36;4.30;99.90
43607;DHT22;29197;44.788;10.366;2023-12-07T07:07:24;4.30;99.90
43607;DHT22;29197;44.788;10.366;2023-12-07T07:10:14;4.30;99.90
43607;DHT22;29197;44.788;10.366;2023-12-07T07:13:03;4.30;99.90
43607;DHT22;29197;44.788;10.366;2023-12-07T07:15:54;4.30;99.90
43607;DHT22;29197;44.788;10.366;2023-12-07T07:18:42;4.30;99.90
43607;DHT22;29197;44.788;10.366;2023-12-07T07:21:31;4.30;99.90
43607;DHT22;29197;44.788;10.366;2023-12-07T07:49:43;5.10;99.90
43607;DHT22;29197;44.788;10.366;2023-12-07T07:52:32;5.30;99.90
43607;DHT22;29197;44.788;10.366;2023-12-07T07:55:21;5.60;99.90
43607;DHT22;29197;44.788;10.366;2023-12-07T07:58:10;5.80;99.90
43607;DHT22;29197;44.788;10.366;2023-12-07T08:00:59;6.00;99.90
43607;DHT22;29197;44.788;10.366;2023-12-07T08:03:47;6.20;99.90
43607;DHT22;29197;44.788;10.366;2023-12-07T08:06:38;5.80;99.90
43607;DHT22;29197;44.788;10.366;2023-12-07T08:09:26;5.70;99.90
43607;DHT22;29197;44.788;10.366;2023-12-07T08:12:15;5.70;99.90
43607;DHT22;29197;44.788;10.366;2023-12-07T08:15:05;5.60;99.90
43607;DHT22;29197;44.788;10.366;2023-12-07T08:17:58;5.70;99.90
43607;DHT22;29197;44.788;10.366;2023-12-07T08:20:47;5.90;99.90
43607;DHT22;29197;44.788;10.366;2023-12-07T08:23:37;6.00;99.90
43607;DHT22;29197;44.788;10.366;2023-12-07T08:29:15;6.30;99.90
43607;DHT22;29197;44.788;10.366;2023-12-07T08:32:04;6.40;99.90
43607;DHT22;29197;44.788;10.366;2023-12-07T08:34:53;6.50;99.90
43607;DHT22;29197;44.788;10.366;2023-12-07T08:37:42;6.50;99.90
43607;DHT22;29197;44.788;10.366;2023-12-07T08:40:32;6.20;99.90
43607;DHT22;29197;44.788;10.366;2023-12-07T08:43:22;6.20;99.90
43607;DHT22;29197;44.788;10.366;2023-12-07T08:46:11;6.30;99.90
43607;DHT22;29197;44.788;10.366;2023-12-07T08:49:00;6.30;99.90
43607;DHT22;29197;44.788;10.366;2023-12-07T08:51:49;6.20;99.90
43607;DHT22;29197;44.788;10.366;2023-12-07T08:54:58;6.40;99.90
43607;DHT22;29197;44.788;10.366;2023-12-07T09:00:38;6.70;99.90
43607;DHT22;29197;44.788;10.366;2023-12-07T09:03:27;6.80;99.90
43607;DHT22;29197;44.788;10.366;2023-12-07T09:06:19;6.90;99.90
43607;DHT22;29197;44.788;10.366;2023-12-07T09:09:08;7.00;99.90
43607;DHT22;29197;44.788;10.366;2023-12-07T09:11:59;7.20;99.90
43607;DHT22;29197;44.788;10.366;2023-12-07T09:14:49;7.50;99.90
43607;DHT22;29197;44.788;10.366;2023-12-07T09:20:27;8.00;99.90
43607;DHT22;29197;44.788;10.366;2023-12-07T09:23:16;8.20;99.90
43607;DHT22;29197;44.788;10.366;2023-12-07T09:26:05;8.40;99.90
43607;DHT22;29197;44.788;10.366;2023-12-07T09:28:55;8.60;99.90
43607;DHT22;29197;44.788;10.366;2023-12-07T09:31:45;8.70;99.90
43607;DHT22;29197;44.788;10.366;2023-12-07T09:34:33;8.90;99.90
43607;DHT22;29197;44.788;10.366;2023-12-07T09:37:23;9.00;99.90
43607;DHT22;29197;44.788;10.366;2023-12-07T09:40:16;9.20;99.90
43607;DHT22;29197;44.788;10.366;2023-12-07T09:43:08;9.30;99.90
43607;DHT22;29197;44.788;10.366;2023-12-07T09:45:57;9.40;99.90
43607;DHT22;29197;44.788;10.366;2023-12-07T09:48:49;9.60;99.90
43607;DHT22;29197;44.788;10.366;2023-12-07T09:57:18;10.00;99.90
43607;DHT22;29197;44.788;10.366;2023-12-07T10:00:08;10.20;99.90
43607;DHT22;29197;44.788;10.366;2023-12-07T10:02:58;10.40;99.90
43607;DHT22;29197;44.788;10.366;2023-12-07T10:05:57;10.50;99.90
43607;DHT22;29197;44.788;10.366;2023-12-07T10:08:47;10.70;99.90
43607;DHT22;29197;44.788;10.366;2023-12-07T10:11:36;10.80;99.90
43607;DHT22;29197;44.788;10.366;2023-12-07T10:14:24;11.00;99.90
43607;DHT22;29197;44.788;10.366;2023-12-07T10:17:13;11.20;99.90
43607;DHT22;29197;44.788;10.366;2023-12-07T10:20:08;11.30;99.90
43607;DHT22;29197;44.788;10.366;2023-12-07T10:23:06;11.50;99.90
43607;DHT22;29197;44.788;10.366;2023-12-07T10:25:56;11.60;99.90
43607;DHT22;29197;44.788;10.366;2023-12-07T10:28:49;11.70;99.90
43607;DHT22;29197;44.788;10.366;2023-12-07T10:31:42;11.80;99.90
43607;DHT22;29197;44.788;10.366;2023-12-07T10:34:36;11.90;99.90
43607;DHT22;29197;44.788;10.366;2023-12-07T10:37:28;11.90;99.90
43607;DHT22;29197;44.788;10.366;2023-12-07T10:40:19;12.00;99.90
43607;DHT22;29197;44.788;10.366;2023-12-07T10:43:09;12.10;99.90
43607;DHT22;29197;44.788;10.366;2023-12-07T10:45:59;12.20;99.90
43607;DHT22;29197;44.788;10.366;2023-12-07T10:48:51;12.30;99.90
43607;DHT22;29197;44.788;10.366;2023-12-07T10:51:42;12.30;99.90
43607;DHT22;29197;44.788;10.366;2023-12-07T10:54:41;12.30;99.90
43607;DHT22;29197;44.788;10.366;2023-12-07T10:57:34;12.40;99.90
43607;DHT22;29197;44.788;10.366;2023-12-07T11:00:26;12.50;99.90
43607;DHT22;29197;44.788;10.366;2023-12-07T11:03:32;12.70;99.90
43607;DHT22;29197;44.788;10.366;2023-12-07T11:06:21;12.70;99.90
43607;DHT22;29197;44.788;10.366;2023-12-07T11:09:15;12.80;99.90
43607;DHT22;29197;44.788;10.366;2023-12-07T11:12:20;12.80;99.90
43607;DHT22;29197;44.788;10.366;2023-12-07T11:15:18;12.90;99.90
43607;DHT22;29197;44.788;10.366;2023-12-07T11:18:08;12.90;99.90
43607;DHT22;29197;44.788;10.366;2023-12-07T11:21:03;13.00;99.90
43607;DHT22;29197;44.788;10.366;2023-12-07T11:23:54;13.00;99.90
43607;DHT22;29197;44.788;10.366;2023-12-07T11:26:45;13.10;99.90
43607;DHT22;29197;44.788;10.366;2023-12-07T11:29:38;13.10;99.90
43607;DHT22;29197;44.788;10.366;2023-12-07T11:32:33;13.10;99.90
43607;DHT22;29197;44.788;10.366;2023-12-07T11:35:24;13.20;99.90
43607;DHT22;29197;44.788;10.366;2023-12-07T11:38:15;13.30;99.90
43607;DHT22;29197;44.788;10.366;2023-12-07T11:41:09;13.30;99.90
43607;DHT22;29197;44.788;10.366;2023-12-07T11:43:59;13.30;99.90
43607;DHT22;29197;44.788;10.366;2023-12-07T11:46:48;13.30;99.90
43607;DHT22;29197;44.788;10.366;2023-12-07T11:49:41;13.30;99.90
43607;DHT22;29197;44.788;10.366;2023-12-07T11:52:32;13.40;99.90
43607;DHT22;29197;44.788;10.366;2023-12-07T11:55:33;13.50;99.90
43607;DHT22;29197;44.788;10.366;2023-12-07T11:58:25;13.50;99.90
43607;DHT22;29197;44.788;10.366;2023-12-07T12:01:18;13.70;99.90
43607;DHT22;29197;44.788;10.366;2023-12-07T12:04:12;13.70;99.90
43607;DHT22;29197;44.788;10.366;2023-12-07T12:07:05;13.80;99.90
43607;DHT22;29197;44.788;10.366;2023-12-07T12:09:53;13.80;99.90
43607;DHT22;29197;44.788;10.366;2023-12-07T12:12:48;13.90;99.90
43607;DHT22;29197;44.788;10.366;2023-12-07T12:15:37;14.00;99.90
43607;DHT22;29197;44.788;10.366;2023-12-07T12:18:29;14.00;99.90
43607;DHT22;29197;44.788;10.366;2023-12-07T12:21:18;14.20;99.90
43607;DHT22;29197;44.788;10.366;2023-12-07T12:24:12;14.20;99.90
43607;DHT22;29197;44.788;10.366;2023-12-07T12:27:03;14.40;99.90
43607;DHT22;29197;44.788;10.366;2023-12-07T12:29:55;14.40;99.90
43607;DHT22;29197;44.788;10.366;2023-12-07T12:32:46;14.50;99.90
43607;DHT22;29197;44.788;10.366;2023-12-07T12:35:36;14.50;99.90
43607;DHT22;29197;44.788;10.366;2023-12-07T12:38:25;14.60;99.90
43607;DHT22;29197;44.788;10.366;2023-12-07T12:41:30;14.60;99.90
43607;DHT22;29197;44.788;10.366;2023-12-07T12:44:30;14.70;99.90
43607;DHT22;29197;44.788;10.366;2023-12-07T12:47:29;14.70;99.90
43607;DHT22;29197;44.788;10.366;2023-12-07T12:50:35;14.70;99.90
43607;DHT22;29197;44.788;10.366;2023-12-07T12:53:30;14.60;99.90
43607;DHT22;29197;44.788;10.366;2023-12-07T12:56:19;14.50;99.90
43607;DHT22;29197;44.788;10.366;2023-12-07T12:59:11;14.50;99.90
43607;DHT22;29197;44.788;10.366;2023-12-07T13:02:03;14.40;99.90
43607;DHT22;29197;44.788;10.366;2023-12-07T13:04:54;14.40;99.90
43607;DHT22;29197;44.788;10.366;2023-12-07T13:07:44;14.30;99.90
43607;DHT22;29197;44.788;10.366;2023-12-07T13:10:55;14.30;99.90
43607;DHT22;29197;44.788;10.366;2023-12-07T13:13:45;14.20;99.90
43607;DHT22;29197;44.788;10.366;2023-12-07T13:16:39;14.10;99.90
43607;DHT22;29197;44.788;10.366;2023-12-07T13:19:29;13.90;99.90
43607;DHT22;29197;44.788;10.366;2023-12-07T13:25:14;13.60;99.90
43607;DHT22;29197;44.788;10.366;2023-12-07T13:28:04;13.50;99.90
43607;DHT22;29197;44.788;10.366;2023-12-07T13:33:44;13.00;99.90
43607;DHT22;29197;44.788;10.366;2023-12-07T13:36:45;12.70;99.90
43607;DHT22;29197;44.788;10.366;2023-12-07T13:39:38;12.50;99.90
43607;DHT22;29197;44.788;10.366;2023-12-07T13:42:31;12.30;99.90
43607;DHT22;29197;44.788;10.366;2023-12-07T13:45:23;12.10;99.90
43607;DHT22;29197;44.788;10.366;2023-12-07T13:48:13;11.90;99.90
43607;DHT22;29197;44.788;10.366;2023-12-07T13:51:05;11.70;99.90
43607;DHT22;29197;44.788;10.366;2023-12-07T13:53:54;11.60;99.90
43607;DHT22;29197;44.788;10.366;2023-12-07T13:56:50;11.50;99.90
43607;DHT22;29197;44.788;10.366;2023-12-07T13:59:47;11.40;99.90
43607;DHT22;29197;44.788;10.366;2023-12-07T14:02:39;11.30;99.90
43607;DHT22;29197;44.788;10.366;2023-12-07T14:05:31;11.30;99.90
43607;DHT22;29197;44.788;10.366;2023-12-07T14:08:22;11.20;99.90
43607;DHT22;29197;44.788;10.366;2023-12-07T14:11:13;11.10;99.90
43607;DHT22;29197;44.788;10.366;2023-12-07T14:14:02;11.10;99.90
43607;DHT22;29197;44.788;10.366;2023-12-07T14:16:54;10.90;99.90
43607;DHT22;29197;44.788;10.366;2023-12-07T14:19:57;10.80;99.90
43607;DHT22;29197;44.788;10.366;2023-12-07T14:23:10;10.80;99.90
43607;DHT22;29197;44.788;10.366;2023-12-07T14:28:58;10.60;99.90
43607;DHT22;29197;44.788;10.366;2023-12-07T14:31:48;10.60;99.90
43607;DHT22;29197;44.788;10.366;2023-12-07T14:34:39;10.50;99.90
43607;DHT22;29197;44.788;10.366;2023-12-07T14:37:33;10.50;99.90
43607;DHT22;29197;44.788;10.366;2023-12-07T14:40:26;10.50;99.90
43607;DHT22;29197;44.788;10.366;2023-12-07T14:43:19;10.40;99.90
43607;DHT22;29197;44.788;10.366;2023-12-07T14:46:14;10.30;99.90
43607;DHT22;29197;44.788;10.366;2023-12-07T14:49:04;10.30;99.90
43607;DHT22;29197;44.788;10.366;2023-12-07T14:51:56;10.30;99.90
43607;DHT22;29197;44.788;10.366;2023-12-07T14:54:53;10.20;99.90
43607;DHT22;29197;44.788;10.366;2023-12-07T14:57:45;10.20;99.90
43607;DHT22;29197;44.788;10.366;2023-12-07T15:00:44;10.10;99.90
43607;DHT22;29197;44.788;10.366;2023-12-07T15:03:36;10.00;99.90
43607;DHT22;29197;44.788;10.366;2023-12-07T15:06:27;10.00;99.90
43607;DHT22;29197;44.788;10.366;2023-12-07T15:09:20;10.00;99.90
43607;DHT22;29197;44.788;10.366;2023-12-07T15:12:12;9.80;99.90
43607;DHT22;29197;44.788;10.366;2023-12-07T15:15:06;9.80;99.90
43607;DHT22;29197;44.788;10.366;2023-12-07T15:23:57;9.60;99.90
43607;DHT22;29197;44.788;10.366;2023-12-07T17:19:34;7.90;99.90
43607;DHT22;29197;44.788;10.366;2023-12-07T17:22:38;7.70;99.90
43607;DHT22;29197;44.788;10.366;2023-12-07T17:25:29;7.60;99.90
43607;DHT22;29197;44.788;10.366;2023-12-07T17:28:19;7.60;99.90
43607;DHT22;29197;44.788;10.366;2023-12-07T17:31:11;7.50;99.90
43607;DHT22;29197;44.788;10.366;2023-12-07T17:34:03;7.40;99.90
43607;DHT22;29197;44.788;10.366;2023-12-07T17:36:57;7.40;99.90
43607;DHT22;29197;44.788;10.366;2023-12-07T17:39:52;7.40;99.90
43607;DHT22;29197;44.788;10.366;2023-12-07T17:42:46;7.40;99.90
43607;DHT22;29197;44.788;10.366;2023-12-07T17:45:36;7.50;99.90
43607;DHT22;29197;44.788;10.366;2023-12-07T17:48:27;7.50;99.90
43607;DHT22;29197;44.788;10.366;2023-12-07T17:51:30;7.50;99.90
43607;DHT22;29197;44.788;10.366;2023-12-07T17:54:24;7.50;99.90
43607;DHT22;29197;44.788;10.366;2023-12-07T17:57:20;6.90;99.90
43607;DHT22;29197;44.788;10.366;2023-12-07T18:00:12;6.90;99.90
43607;DHT22;29197;44.788;10.366;2023-12-07T18:03:06;6.90;99.90
43607;DHT22;29197;44.788;10.366;2023-12-07T18:05:57;7.00;99.90
43607;DHT22;29197;44.788;10.366;2023-12-07T18:08:46;7.00;99.90
43607;DHT22;29197;44.788;10.366;2023-12-07T18:11:43;6.80;99.90
43607;DHT22;29197;44.788;10.366;2023-12-07T18:14:35;6.80;99.90
43607;DHT22;29197;44.788;10.366;2023-12-07T18:17:27;6.80;99.90
43607;DHT22;29197;44.788;10.366;2023-12-07T18:20:19;6.70;99.90
43607;DHT22;29197;44.788;10.366;2023-12-07T18:23:07;6.70;99.90
43607;DHT22;29197;44.788;10.366;2023-12-07T18:26:00;6.70;99.90
43607;DHT22;29197;44.788;10.366;2023-12-07T18:28:53;6.70;99.90
43607;DHT22;29197;44.788;10.366;2023-12-07T18:31:47;6.70;99.90
43607;DHT22;29197;44.788;10.366;2023-12-07T18:34:40;6.80;99.90
43607;DHT22;29197;44.788;10.366;2023-12-07T18:37:34;6.90;99.90
43607;DHT22;29197;44.788;10.366;2023-12-07T18:40:28;6.90;99.90
43607;DHT22;29197;44.788;10.366;2023-12-07T18:43:20;6.90;99.90
43607;DHT22;29197;44.788;10.366;2023-12-07T18:46:12;6.60;99.90
43607;DHT22;29197;44.788;10.366;2023-12-07T18:49:06;6.20;99.90
43607;DHT22;29197;44.788;10.366;2023-12-07T18:51:58;6.20;99.90
43607;DHT22;29197;44.788;10.366;2023-12-07T18:54:48;6.20;99.90
43607;DHT22;29197;44.788;10.366;2023-12-07T18:57:37;6.30;99.90
43607;DHT22;29197;44.788;10.366;2023-12-07T19:00:25;6.40;99.90
43607;DHT22;29197;44.788;10.366;2023-12-07T19:03:16;6.50;99.90
43607;DHT22;29197;44.788;10.366;2023-12-07T19:06:07;6.40;99.90
43607;DHT22;29197;44.788;10.366;2023-12-07T19:09:03;6.40;99.90
43607;DHT22;29197;44.788;10.366;2023-12-07T19:11:54;6.30;99.90
43607;DHT22;29197;44.788;10.366;2023-12-07T19:14:47;6.20;99.90
43607;DHT22;29197;44.788;10.366;2023-12-07T19:17:44;6.10;99.90
43607;DHT22;29197;44.788;10.366;2023-12-07T19:20:39;6.20;99.90
43607;DHT22;29197;44.788;10.366;2023-12-07T19:23:28;6.20;99.90
43607;DHT22;29197;44.788;10.366;2023-12-07T19:26:20;6.10;99.90
43607;DHT22;29197;44.788;10.366;2023-12-07T19:29:11;6.00;99.90
43607;DHT22;29197;44.788;10.366;2023-12-07T19:32:01;6.00;99.90
43607;DHT22;29197;44.788;10.366;2023-12-07T19:34:54;5.80;99.90
43607;DHT22;29197;44.788;10.366;2023-12-07T19:37:48;5.90;99.90
43607;DHT22;29197;44.788;10.366;2023-12-07T19:40:38;6.10;99.90
43607;DHT22;29197;44.788;10.366;2023-12-07T19:43:33;6.30;99.90
43607;DHT22;29197;44.788;10.366;2023-12-07T19:46:22;6.40;99.90
43607;DHT22;29197;44.788;10.366;2023-12-07T19:49:11;6.20;99.90
43607;DHT22;29197;44.788;10.366;2023-12-07T19:52:04;6.20;99.90
43607;DHT22;29197;44.788;10.366;2023-12-07T19:55:03;6.30;99.90
43607;DHT22;29197;44.788;10.366;2023-12-07T19:57:56;5.70;99.90
43607;DHT22;29197;44.788;10.366;2023-12-07T20:00:50;6.20;99.90
43607;DHT22;29197;44.788;10.366;2023-12-07T20:03:40;6.10;99.90
43607;DHT22;29197;44.788;10.366;2023-12-07T20:06:35;5.90;99.90
43607;DHT22;29197;44.788;10.366;2023-12-07T20:09:27;5.80;99.90
43607;DHT22;29197;44.788;10.366;2023-12-07T20:12:24;5.30;99.90
43607;DHT22;29197;44.788;10.366;2023-12-07T20:15:17;6.00;99.90
43607;DHT22;29197;44.788;10.366;2023-12-07T20:18:08;6.10;99.90
43607;DHT22;29197;44.788;10.366;2023-12-07T20:21:01;6.00;99.90
43607;DHT22;29197;44.788;10.366;2023-12-07T20:26:51;5.20;99.90
43607;DHT22;29197;44.788;10.366;2023-12-07T20:29:43;5.10;99.90
43607;DHT22;29197;44.788;10.366;2023-12-07T20:32:36;5.40;99.90
43607;DHT22;29197;44.788;10.366;2023-12-07T20:35:27;5.60;99.90
43607;DHT22;29197;44.788;10.366;2023-12-07T20:38:18;5.70;99.90
43607;DHT22;29197;44.788;10.366;2023-12-07T20:41:12;5.80;99.90
43607;DHT22;29197;44.788;10.366;2023-12-07T20:44:02;5.80;99.90
43607;DHT22;29197;44.788;10.366;2023-12-07T20:46:53;5.90;99.90
43607;DHT22;29197;44.788;10.366;2023-12-07T20:49:42;5.90;99.90
43607;DHT22;29197;44.788;10.366;2023-12-07T20:52:31;5.90;99.90
43607;DHT22;29197;44.788;10.366;2023-12-07T20:55:19;6.00;99.90
43607;DHT22;29197;44.788;10.366;2023-12-07T20:58:08;5.90;99.90
43607;DHT22;29197;44.788;10.366;2023-12-07T21:00:57;5.70;99.90